Time,TemperatureF,DewpointF,PressureIn,WindDirection,WindDirectionDegrees,WindSpeedMPH,WindSpeedGustMPH,Humidity,HourlyPrecipIn,Conditions,Clouds,dailyrainin,SoftwareType,DateUTC
2013-03-09 00:03:00,49.8,46.9,29.64,ENE,74,0.0,0.0,90,0.00,,,0.00,meteohub,2013-03-08 23:03:00,
2013-03-09 00:10:00,49.8,46.8,29.64,ENE,74,0.0,0.0,89,0.00,,,0.00,meteohub,2013-03-08 23:10:00,
2013-03-09 00:16:00,49.8,46.8,29.63,SSE,155,0.0,0.0,89,0.00,,,0.00,meteohub,2013-03-08 23:16:00,
2013-03-09 00:22:00,49.8,46.8,29.63,SSE,155,0.0,0.0,89,0.00,,,0.00,meteohub,2013-03-08 23:22:00,
2013-03-09 00:27:00,49.8,46.8,29.63,SSE,155,0.0,0.0,89,0.00,,,0.00,meteohub,2013-03-08 23:27:00,
2013-03-09 00:32:00,49.6,46.8,29.63,SSE,155,0.0,0.0,90,0.00,,,0.00,meteohub,2013-03-08 23:32:00,
2013-03-09 00:37:00,49.6,46.8,29.62,SSE,155,0.0,0.0,90,0.00,,,0.00,meteohub,2013-03-08 23:37:00,
2013-03-09 00:42:00,49.6,46.8,29.62,SSE,155,0.0,0.0,90,0.00,,,0.00,meteohub,2013-03-08 23:42:00,
2013-03-09 00:47:00,49.5,46.6,29.62,SSE,155,0.0,0.0,90,0.00,,,0.00,meteohub,2013-03-08 23:47:00,
2013-03-09 00:52:00,49.5,46.9,29.62,SSE,155,0.0,0.0,91,0.00,,,0.00,meteohub,2013-03-08 23:52:00,
2013-03-09 00:57:00,49.3,46.8,29.62,SSE,155,0.0,0.0,91,0.00,,,0.00,meteohub,2013-03-08 23:57:00,
2013-03-09 01:02:00,49.5,46.9,29.61,SSE,155,0.0,0.0,91,0.00,,,0.00,meteohub,2013-03-09 00:02:00,
2013-03-09 01:07:00,49.5,47.3,29.61,SSE,155,0.0,0.0,92,0.00,,,0.00,meteohub,2013-03-09 00:07:00,
2013-03-09 01:12:00,49.5,46.9,29.61,SSE,161,0.0,0.0,91,0.00,,,0.00,meteohub,2013-03-09 00:12:00,
2013-03-09 01:17:00,49.5,46.9,29.60,SSE,161,0.0,0.0,91,0.00,,,0.00,meteohub,2013-03-09 00:17:00,
2013-03-09 01:22:00,49.3,46.8,29.60,SSE,161,0.0,0.0,91,0.00,,,0.00,meteohub,2013-03-09 00:22:00,
2013-03-09 01:27:00,49.3,46.8,29.60,ENE,59,0.0,0.0,91,0.00,,,0.00,meteohub,2013-03-09 00:27:00,
2013-03-09 01:32:00,48.9,46.8,29.60,ENE,74,1.0,2.0,92,0.00,,,0.00,meteohub,2013-03-09 00:32:00,
2013-03-09 01:37:00,48.9,46.8,29.60,East,84,2.0,3.0,92,0.00,,,0.00,meteohub,2013-03-09 00:37:00,
2013-03-09 01:42:00,48.9,46.8,29.60,East,90,1.0,3.0,92,0.00,,,0.00,meteohub,2013-03-09 00:42:00,
2013-03-09 01:47:00,49.1,46.9,29.61,East,90,0.0,3.0,92,0.00,,,0.00,meteohub,2013-03-09 00:47:00,
2013-03-09 01:52:00,49.3,47.1,29.60,East,90,0.0,3.0,92,0.00,,,0.00,meteohub,2013-03-09 00:52:00,
2013-03-09 01:57:00,49.3,47.1,29.61,West,268,1.0,2.0,92,0.00,,,0.00,meteohub,2013-03-09 00:57:00,
2013-03-09 02:02:00,49.5,47.3,29.61,South,184,0.0,4.0,92,0.00,,,0.00,meteohub,2013-03-09 01:02:00,
2013-03-09 02:07:00,49.6,47.1,29.61,SSW,210,2.0,4.0,91,0.00,,,0.00,meteohub,2013-03-09 01:07:00,
2013-03-09 02:12:00,49.6,47.1,29.61,SSW,194,1.0,4.0,91,0.00,,,0.00,meteohub,2013-03-09 01:12:00,
2013-03-09 02:17:00,49.6,47.1,29.60,SSW,194,0.0,4.0,91,0.00,,,0.00,meteohub,2013-03-09 01:17:00,
2013-03-09 02:22:00,49.6,47.1,29.60,SSW,194,0.0,4.0,91,0.00,,,0.00,meteohub,2013-03-09 01:22:00,
2013-03-09 02:27:00,49.6,47.1,29.60,SSW,194,1.0,4.0,91,0.00,,,0.00,meteohub,2013-03-09 01:27:00,
2013-03-09 02:32:00,49.6,47.5,29.60,SSW,194,0.0,3.0,92,0.00,,,0.00,meteohub,2013-03-09 01:32:00,
2013-03-09 02:37:00,49.5,47.3,29.60,SSW,194,0.0,3.0,92,0.00,,,0.00,meteohub,2013-03-09 01:37:00,
2013-03-09 02:42:00,49.5,47.3,29.60,SSW,194,2.0,2.0,92,0.00,,,0.00,meteohub,2013-03-09 01:42:00,
2013-03-09 02:47:00,49.1,46.9,29.60,NW,306,0.0,3.0,92,0.00,,,0.00,meteohub,2013-03-09 01:47:00,
2013-03-09 02:53:00,49.1,46.9,29.60,NW,306,0.0,3.0,92,0.00,,,0.00,meteohub,2013-03-09 01:53:00,
2013-03-09 02:59:00,49.3,47.1,29.59,NW,309,0.0,3.0,92,0.00,,,0.00,meteohub,2013-03-09 01:59:00,
2013-03-09 03:06:00,49.5,46.9,29.59,NW,309,1.0,3.0,91,0.00,,,0.00,meteohub,2013-03-09 02:06:00,
2013-03-09 03:12:00,49.5,46.9,29.59,NW,309,0.0,3.0,91,0.00,,,0.00,meteohub,2013-03-09 02:12:00,
2013-03-09 03:17:00,49.6,47.1,29.59,NW,309,0.0,1.0,91,0.00,,,0.00,meteohub,2013-03-09 02:17:00,
2013-03-09 03:22:00,49.6,47.1,29.59,WNW,290,0.0,1.0,91,0.00,,,0.00,meteohub,2013-03-09 02:22:00,
2013-03-09 03:28:00,49.8,47.3,29.59,WNW,290,1.0,3.0,91,0.00,,,0.00,meteohub,2013-03-09 02:28:00,
2013-03-09 03:34:00,49.8,47.3,29.58,NW,321,1.0,3.0,91,0.00,,,0.00,meteohub,2013-03-09 02:34:00,
2013-03-09 03:40:00,49.8,46.9,29.58,NE,44,1.0,3.0,90,0.00,,,0.00,meteohub,2013-03-09 02:40:00,
2013-03-09 03:46:00,49.8,46.8,29.57,North,5,0.0,3.0,89,0.00,,,0.00,meteohub,2013-03-09 02:46:00,
2013-03-09 03:52:00,49.8,46.8,29.57,North,5,0.0,3.0,89,0.00,,,0.00,meteohub,2013-03-09 02:52:00,
2013-03-09 03:57:00,49.8,46.8,29.57,North,5,0.0,3.0,89,0.00,,,0.00,meteohub,2013-03-09 02:57:00,
2013-03-09 04:02:00,49.8,46.8,29.57,NNE,19,0.0,2.0,89,0.00,,,0.00,meteohub,2013-03-09 03:02:00,
2013-03-09 04:07:00,49.6,46.6,29.57,NNE,13,0.0,2.0,89,0.00,,,0.00,meteohub,2013-03-09 03:07:00,
2013-03-09 04:12:00,49.5,46.6,29.57,NNE,13,1.0,2.0,90,0.00,,,0.00,meteohub,2013-03-09 03:12:00,
2013-03-09 04:17:00,49.3,46.4,29.57,NNE,13,0.0,2.0,90,0.00,,,0.00,meteohub,2013-03-09 03:17:00,
2013-03-09 04:22:00,49.1,46.6,29.56,NNE,32,0.0,2.0,91,0.00,,,0.00,meteohub,2013-03-09 03:22:00,
2013-03-09 04:28:00,48.9,46.0,29.56,NNE,32,0.0,2.0,90,0.00,,,0.00,meteohub,2013-03-09 03:28:00,
2013-03-09 04:34:00,48.7,46.2,29.56,ENE,59,0.0,2.0,91,0.00,,,0.00,meteohub,2013-03-09 03:34:00,
2013-03-09 04:41:00,48.6,46.0,29.56,ENE,59,0.0,1.0,91,0.00,,,0.00,meteohub,2013-03-09 03:41:00,
2013-03-09 04:47:00,48.0,45.9,29.56,ENE,59,1.0,1.0,92,0.00,,,0.00,meteohub,2013-03-09 03:47:00,
2013-03-09 04:52:00,48.0,45.9,29.57,North,5,2.0,2.0,92,0.00,,,0.00,meteohub,2013-03-09 03:52:00,
2013-03-09 04:57:00,48.0,45.9,29.56,NNW,331,0.0,3.0,92,0.00,,,0.00,meteohub,2013-03-09 03:57:00,
2013-03-09 05:03:00,48.4,46.2,29.56,NNW,331,1.0,3.0,92,0.00,,,0.00,meteohub,2013-03-09 04:03:00,
2013-03-09 05:09:00,48.7,45.9,29.56,NNW,342,3.0,3.0,90,0.00,,,0.00,meteohub,2013-03-09 04:09:00,
2013-03-09 05:15:00,49.3,46.2,29.56,NW,308,1.0,5.0,89,0.00,,,0.00,meteohub,2013-03-09 04:15:00,
2013-03-09 05:21:00,49.1,46.0,29.56,NW,307,0.0,5.0,89,0.00,,,0.00,meteohub,2013-03-09 04:21:00,
2013-03-09 05:27:00,48.7,45.9,29.56,NW,312,1.0,4.0,90,0.00,,,0.00,meteohub,2013-03-09 04:27:00,
2013-03-09 05:33:00,48.4,45.9,29.56,NW,312,0.0,2.0,91,0.00,,,0.00,meteohub,2013-03-09 04:33:00,
2013-03-09 05:39:00,47.8,45.3,29.56,NW,312,0.0,2.0,91,0.00,,,0.00,meteohub,2013-03-09 04:39:00,
2013-03-09 05:45:00,47.5,45.3,29.57,NW,312,0.0,2.0,92,0.00,,,0.00,meteohub,2013-03-09 04:45:00,
2013-03-09 05:51:00,47.1,45.0,29.57,NW,312,0.0,2.0,92,0.00,,,0.00,meteohub,2013-03-09 04:51:00,
2013-03-09 05:57:00,46.9,44.8,29.57,NW,312,1.0,1.0,92,0.00,,,0.00,meteohub,2013-03-09 04:57:00,
2013-03-09 06:01:00,46.8,44.8,29.58,NW,311,0.0,3.0,93,0.00,,,0.00,meteohub,2013-03-09 05:01:00,
2013-03-09 06:02:00,46.8,44.8,29.58,NW,311,1.0,3.0,93,0.00,,,0.00,meteohub,2013-03-09 05:02:00,
2013-03-09 06:05:00,46.4,44.4,29.58,NW,311,1.0,3.0,93,0.00,,,0.00,meteohub,2013-03-09 05:05:00,
2013-03-09 06:07:00,46.4,44.4,29.58,NW,311,1.0,3.0,93,0.00,,,0.00,meteohub,2013-03-09 05:07:00,
2013-03-09 06:12:00,46.2,44.6,29.58,NW,311,0.0,3.0,94,0.00,,,0.00,meteohub,2013-03-09 05:12:00,
2013-03-09 06:17:00,46.2,44.6,29.59,NW,311,1.0,3.0,94,0.00,,,0.00,meteohub,2013-03-09 05:17:00,
2013-03-09 06:22:00,46.2,44.6,29.59,NW,311,0.0,2.0,94,0.00,,,0.00,meteohub,2013-03-09 05:22:00,
2013-03-09 06:27:00,46.2,44.6,29.59,NW,311,0.0,2.0,94,0.00,,,0.00,meteohub,2013-03-09 05:27:00,
2013-03-09 06:32:00,46.6,45.0,29.59,NW,311,0.0,2.0,94,0.00,,,0.00,meteohub,2013-03-09 05:32:00,
2013-03-09 06:37:00,46.6,45.0,29.59,NW,311,1.0,2.0,94,0.00,,,0.00,meteohub,2013-03-09 05:37:00,
2013-03-09 06:42:00,46.8,45.1,29.59,NW,311,1.0,3.0,94,0.00,,,0.00,meteohub,2013-03-09 05:42:00,
2013-03-09 06:47:00,46.8,44.8,29.60,NW,311,0.0,3.0,93,0.00,,,0.00,meteohub,2013-03-09 05:47:00,
2013-03-09 06:52:00,46.8,44.8,29.60,NW,311,0.0,2.0,93,0.00,,,0.00,meteohub,2013-03-09 05:52:00,
2013-03-09 06:57:00,46.8,44.8,29.60,NW,311,0.0,2.0,93,0.00,,,0.00,meteohub,2013-03-09 05:57:00,
2013-03-09 07:02:00,46.9,45.0,29.60,NW,311,0.0,1.0,93,0.00,,,0.00,meteohub,2013-03-09 06:02:00,
2013-03-09 07:08:00,46.9,45.0,29.60,NW,312,0.0,1.0,93,0.00,,,0.00,meteohub,2013-03-09 06:08:00,
2013-03-09 07:14:00,46.9,45.0,29.60,South,178,0.0,3.0,93,0.00,,,0.00,meteohub,2013-03-09 06:14:00,
2013-03-09 07:20:00,47.1,45.1,29.60,South,178,0.0,3.0,93,0.00,,,0.00,meteohub,2013-03-09 06:20:00,
2013-03-09 07:26:00,47.1,45.0,29.60,South,178,0.0,2.0,92,0.00,,,0.00,meteohub,2013-03-09 06:26:00,
2013-03-09 07:32:00,47.1,44.6,29.61,WNW,296,2.0,2.0,91,0.00,,,0.00,meteohub,2013-03-09 06:32:00,
2013-03-09 07:37:00,47.5,45.0,29.61,WNW,296,0.0,2.0,91,0.00,,,0.00,meteohub,2013-03-09 06:37:00,
2013-03-09 07:42:00,47.5,45.0,29.61,WNW,296,0.0,2.0,91,0.00,,,0.00,meteohub,2013-03-09 06:42:00,
2013-03-09 07:47:00,47.7,45.0,29.61,WNW,296,0.0,2.0,90,0.00,,,0.00,meteohub,2013-03-09 06:47:00,
2013-03-09 07:52:00,47.8,45.0,29.61,WNW,296,1.0,2.0,90,0.00,,,0.00,meteohub,2013-03-09 06:52:00,
2013-03-09 07:57:00,47.8,45.0,29.62,WNW,296,0.0,2.0,90,0.00,,,0.00,meteohub,2013-03-09 06:57:00,
2013-03-09 08:02:00,48.2,44.8,29.62,WNW,296,0.0,2.0,88,0.00,,,0.00,meteohub,2013-03-09 07:02:00,
2013-03-09 08:07:00,48.7,45.0,29.62,WNW,296,0.0,2.0,87,0.00,,,0.00,meteohub,2013-03-09 07:07:00,
2013-03-09 08:12:00,49.5,45.5,29.62,WNW,296,0.0,2.0,86,0.00,,,0.00,meteohub,2013-03-09 07:12:00,
2013-03-09 08:17:00,50.4,46.0,29.62,WNW,296,0.0,1.0,85,0.00,,,0.00,meteohub,2013-03-09 07:17:00,
2013-03-09 08:22:00,50.5,45.9,29.62,WNW,296,0.0,3.0,84,0.00,,,0.00,meteohub,2013-03-09 07:22:00,
2013-03-09 08:27:00,50.5,46.2,29.62,WNW,296,0.0,3.0,85,0.00,,,0.00,meteohub,2013-03-09 07:27:00,
2013-03-09 08:32:00,51.3,46.6,29.63,WNW,296,0.0,3.0,84,0.00,,,0.00,meteohub,2013-03-09 07:32:00,
2013-03-09 08:37:00,52.2,46.6,29.63,WNW,296,1.0,2.0,81,0.00,,,0.00,meteohub,2013-03-09 07:37:00,
2013-03-09 08:42:00,52.5,46.9,29.63,WNW,296,0.0,1.0,81,0.00,,,0.00,meteohub,2013-03-09 07:42:00,
2013-03-09 08:47:00,52.7,46.8,29.62,ENE,76,1.0,1.0,80,0.00,,,0.00,meteohub,2013-03-09 07:47:00,
2013-03-09 08:53:00,52.9,46.6,29.63,ESE,106,1.0,3.0,79,0.00,,,0.00,meteohub,2013-03-09 07:53:00,
2013-03-09 09:00:00,52.9,46.6,29.63,ESE,106,2.0,3.0,79,0.00,,,0.00,meteohub,2013-03-09 08:00:00,
2013-03-09 09:06:00,53.2,46.9,29.62,ESE,107,0.0,3.0,79,0.00,,,0.00,meteohub,2013-03-09 08:06:00,
2013-03-09 09:12:00,53.8,46.8,29.62,ESE,107,0.0,2.0,77,0.00,,,0.00,meteohub,2013-03-09 08:12:00,
2013-03-09 09:17:00,54.3,46.6,29.62,ESE,107,0.0,2.0,75,0.00,,,0.00,meteohub,2013-03-09 08:17:00,
2013-03-09 09:22:00,54.9,46.8,29.62,ESE,107,0.0,1.0,74,0.00,,,0.00,meteohub,2013-03-09 08:22:00,
2013-03-09 09:27:00,54.7,46.6,29.62,SSE,164,1.0,3.0,74,0.00,,,0.00,meteohub,2013-03-09 08:27:00,
2013-03-09 09:32:00,54.5,46.4,29.62,ESE,120,1.0,4.0,74,0.00,,,0.00,meteohub,2013-03-09 08:32:00,
2013-03-09 09:37:00,54.5,46.4,29.62,SSE,152,2.0,4.0,74,0.00,,,0.00,meteohub,2013-03-09 08:37:00,
2013-03-09 09:42:00,54.3,45.9,29.62,South,172,1.0,4.0,73,0.00,,,0.00,meteohub,2013-03-09 08:42:00,
2013-03-09 09:47:00,54.9,46.8,29.63,ESE,120,0.0,4.0,74,0.00,,,0.00,meteohub,2013-03-09 08:47:00,
2013-03-09 09:52:00,55.0,45.9,29.63,South,178,0.0,4.0,71,0.00,,,0.00,meteohub,2013-03-09 08:52:00,
2013-03-09 09:57:00,55.6,45.5,29.63,SSW,194,0.0,4.0,69,0.00,,,0.00,meteohub,2013-03-09 08:57:00,
2013-03-09 10:02:00,55.9,45.9,29.63,SSE,155,0.0,4.0,69,0.00,,,0.00,meteohub,2013-03-09 09:02:00,
2013-03-09 10:07:00,56.3,45.9,29.63,SSE,159,0.0,4.0,68,0.00,,,0.00,meteohub,2013-03-09 09:07:00,
2013-03-09 10:12:00,56.5,45.7,29.63,SSE,165,0.0,4.0,67,0.00,,,0.00,meteohub,2013-03-09 09:12:00,
2013-03-09 10:17:00,56.8,46.0,29.62,SSE,162,0.0,3.0,67,0.00,,,0.00,meteohub,2013-03-09 09:17:00,
2013-03-09 10:22:00,57.4,46.6,29.62,SSE,162,0.0,3.0,67,0.00,,,0.00,meteohub,2013-03-09 09:22:00,
2013-03-09 10:27:00,57.7,46.0,29.62,NW,304,0.0,3.0,65,0.00,,,0.00,meteohub,2013-03-09 09:27:00,
2013-03-09 10:32:00,58.1,46.4,29.62,NW,325,0.0,4.0,65,0.00,,,0.00,meteohub,2013-03-09 09:32:00,
2013-03-09 10:37:00,58.5,46.8,29.62,NW,323,0.0,4.0,65,0.00,,,0.00,meteohub,2013-03-09 09:37:00,
2013-03-09 10:42:00,58.8,46.2,29.62,SSW,199,0.0,3.0,63,0.00,,,0.00,meteohub,2013-03-09 09:42:00,
2013-03-09 10:47:00,58.8,46.2,29.62,South,182,0.0,2.0,63,0.00,,,0.00,meteohub,2013-03-09 09:47:00,
2013-03-09 10:52:00,59.4,46.4,29.62,South,175,0.0,2.0,62,0.00,,,0.00,meteohub,2013-03-09 09:52:00,
2013-03-09 10:57:00,59.5,46.6,29.62,SE,126,0.0,1.0,62,0.00,,,0.00,meteohub,2013-03-09 09:57:00,
2013-03-09 11:02:00,59.4,45.9,29.62,ESE,109,0.0,4.0,61,0.00,,,0.00,meteohub,2013-03-09 10:02:00,
2013-03-09 11:07:00,58.8,45.9,29.62,South,180,0.0,4.0,62,0.00,,,0.00,meteohub,2013-03-09 10:07:00,
2013-03-09 11:12:00,59.2,45.7,29.62,ESE,113,0.0,4.0,61,0.00,,,0.00,meteohub,2013-03-09 10:12:00,
2013-03-09 11:17:00,59.5,45.1,29.62,SW,223,0.0,3.0,59,0.00,,,0.00,meteohub,2013-03-09 10:17:00,
2013-03-09 11:22:00,59.9,45.5,29.63,WSW,246,0.0,3.0,59,0.00,,,0.00,meteohub,2013-03-09 10:22:00,
2013-03-09 11:27:00,61.2,46.8,29.63,WSW,244,0.0,3.0,59,0.00,,,0.00,meteohub,2013-03-09 10:27:00,
2013-03-09 11:32:00,62.2,46.8,29.62,West,273,0.0,2.0,57,0.00,,,0.00,meteohub,2013-03-09 10:32:00,
2013-03-09 11:37:00,62.8,45.9,29.62,South,181,1.0,2.0,54,0.00,,,0.00,meteohub,2013-03-09 10:37:00,
2013-03-09 11:42:00,61.7,45.3,29.63,South,186,3.0,5.0,55,0.00,,,0.00,meteohub,2013-03-09 10:42:00,
2013-03-09 11:47:00,60.6,45.7,29.63,South,185,0.0,6.0,58,0.00,,,0.00,meteohub,2013-03-09 10:47:00,
2013-03-09 11:52:00,60.8,45.9,29.63,South,186,0.0,6.0,58,0.00,,,0.00,meteohub,2013-03-09 10:52:00,
2013-03-09 11:57:00,61.3,46.4,29.63,SE,137,6.0,10.0,58,0.00,,,0.00,meteohub,2013-03-09 10:57:00,
2013-03-09 12:02:00,61.5,46.6,29.63,South,183,4.0,10.0,58,0.00,,,0.00,meteohub,2013-03-09 11:02:00,
2013-03-09 12:07:00,61.5,47.5,29.63,South,182,2.0,9.0,60,0.00,,,0.00,meteohub,2013-03-09 11:07:00,
2013-03-09 12:12:00,60.8,47.3,29.63,SSW,206,6.0,8.0,61,0.00,,,0.00,meteohub,2013-03-09 11:12:00,
2013-03-09 12:17:00,60.1,46.9,29.64,SSE,153,7.0,12.0,62,0.00,,,0.00,meteohub,2013-03-09 11:17:00,
2013-03-09 12:22:00,59.0,46.4,29.64,SSW,207,5.0,12.0,63,0.00,,,0.00,meteohub,2013-03-09 11:22:00,
2013-03-09 12:27:00,58.8,46.2,29.64,SSW,194,8.0,16.0,63,0.00,,,0.00,meteohub,2013-03-09 11:27:00,
2013-03-09 12:32:00,59.2,46.6,29.64,SSE,165,4.0,16.0,63,0.00,,,0.00,meteohub,2013-03-09 11:32:00,
2013-03-09 12:37:00,59.5,46.0,29.63,ESE,112,8.0,16.0,61,0.00,,,0.00,meteohub,2013-03-09 11:37:00,
2013-03-09 12:42:00,59.4,45.5,29.64,South,173,5.0,14.0,60,0.00,,,0.00,meteohub,2013-03-09 11:42:00,
2013-03-09 12:47:00,59.4,45.9,29.63,SSW,201,5.0,18.0,61,0.00,,,0.00,meteohub,2013-03-09 11:47:00,
2013-03-09 12:52:00,59.5,46.0,29.63,SE,132,5.0,18.0,61,0.00,,,0.00,meteohub,2013-03-09 11:52:00,
2013-03-09 12:57:00,60.1,46.2,29.62,South,176,3.0,18.0,60,0.00,,,0.00,meteohub,2013-03-09 11:57:00,
2013-03-09 13:02:00,60.1,45.7,29.62,SW,216,11.0,12.0,59,0.00,,,0.00,meteohub,2013-03-09 12:02:00,
2013-03-09 13:07:00,60.3,45.5,29.62,SSE,159,4.0,12.0,58,0.00,,,0.00,meteohub,2013-03-09 12:07:00,
2013-03-09 13:12:00,59.9,44.6,29.62,SE,143,4.0,17.0,57,0.00,,,0.00,meteohub,2013-03-09 12:12:00,
2013-03-09 13:17:00,59.9,45.1,29.62,SSW,193,7.0,17.0,58,0.00,,,0.00,meteohub,2013-03-09 12:17:00,
2013-03-09 13:22:00,60.4,44.6,29.62,South,182,5.0,17.0,56,0.00,,,0.00,meteohub,2013-03-09 12:22:00,
2013-03-09 13:27:00,61.2,44.8,29.62,SSE,165,5.0,12.0,55,0.00,,,0.00,meteohub,2013-03-09 12:27:00,
2013-03-09 13:32:00,61.2,44.8,29.62,SSW,194,4.0,12.0,55,0.00,,,0.00,meteohub,2013-03-09 12:32:00,
2013-03-09 13:37:00,61.2,44.8,29.62,SSW,205,7.0,11.0,55,0.00,,,0.00,meteohub,2013-03-09 12:37:00,
2013-03-09 13:42:00,61.0,44.8,29.61,SE,139,3.0,16.0,55,0.00,,,0.00,meteohub,2013-03-09 12:42:00,
2013-03-09 13:47:00,61.3,45.5,29.61,SSE,164,5.0,16.0,56,0.00,,,0.00,meteohub,2013-03-09 12:47:00,
2013-03-09 13:52:00,61.3,45.0,29.60,South,179,2.0,16.0,55,0.00,,,0.00,meteohub,2013-03-09 12:52:00,
2013-03-09 13:57:00,61.5,45.1,29.60,SSE,161,5.0,16.0,55,0.00,,,0.00,meteohub,2013-03-09 12:57:00,
2013-03-09 14:02:00,61.9,45.1,29.60,SW,219,9.0,16.0,54,0.00,,,0.00,meteohub,2013-03-09 13:02:00,
2013-03-09 14:07:00,61.5,45.1,29.60,SW,217,9.0,14.0,55,0.00,,,0.00,meteohub,2013-03-09 13:07:00,
2013-03-09 14:13:00,61.5,45.7,29.59,South,186,5.0,17.0,56,0.00,,,0.00,meteohub,2013-03-09 13:13:00,
2013-03-09 14:19:00,61.5,45.7,29.59,SSW,198,11.0,17.0,56,0.00,,,0.00,meteohub,2013-03-09 13:19:00,
2013-03-09 14:25:00,61.7,45.3,29.59,South,176,7.0,16.0,55,0.00,,,0.00,meteohub,2013-03-09 13:25:00,
2013-03-09 14:31:00,61.5,44.8,29.59,SSW,192,5.0,16.0,54,0.00,,,0.00,meteohub,2013-03-09 13:31:00,
2013-03-09 14:37:00,61.7,45.0,29.59,South,180,4.0,15.0,54,0.00,,,0.00,meteohub,2013-03-09 13:37:00,
2013-03-09 14:42:00,62.1,44.2,29.59,South,178,7.0,12.0,52,0.00,,,0.00,meteohub,2013-03-09 13:42:00,
2013-03-09 14:47:00,62.1,43.7,29.58,South,181,3.0,12.0,51,0.00,,,0.00,meteohub,2013-03-09 13:47:00,
2013-03-09 14:52:00,62.2,42.3,29.59,SSW,209,9.0,14.0,48,0.00,,,0.00,meteohub,2013-03-09 13:52:00,
2013-03-09 14:58:00,62.2,42.3,29.59,South,186,11.0,17.0,48,0.00,,,0.00,meteohub,2013-03-09 13:58:00,
2013-03-09 15:04:00,62.1,42.1,29.59,SW,232,9.0,17.0,48,0.00,,,0.00,meteohub,2013-03-09 14:04:00,
2013-03-09 15:10:00,62.8,43.3,29.58,SW,225,5.0,17.0,49,0.00,,,0.00,meteohub,2013-03-09 14:10:00,
2013-03-09 15:16:00,63.0,43.0,29.58,SSW,202,7.0,17.0,48,0.00,,,0.00,meteohub,2013-03-09 14:16:00,
2013-03-09 15:22:00,62.8,42.8,29.59,SW,221,7.0,14.0,48,0.00,,,0.00,meteohub,2013-03-09 14:22:00,
2013-03-09 15:27:00,62.4,43.0,29.58,SW,217,4.0,14.0,49,0.00,,,0.00,meteohub,2013-03-09 14:27:00,
2013-03-09 15:32:00,62.2,42.8,29.58,South,188,7.0,14.0,49,0.00,,,0.00,meteohub,2013-03-09 14:32:00,
2013-03-09 15:37:00,61.9,41.9,29.58,SSE,155,6.0,14.0,48,0.00,,,0.00,meteohub,2013-03-09 14:37:00,
2013-03-09 15:42:00,61.9,41.9,29.58,WNW,283,4.0,14.0,48,0.00,,,0.00,meteohub,2013-03-09 14:42:00,
2013-03-09 15:47:00,61.9,41.4,29.58,SE,138,7.0,14.0,47,0.00,,,0.00,meteohub,2013-03-09 14:47:00,
2013-03-09 15:52:00,62.1,42.1,29.58,SSW,205,10.0,13.0,48,0.00,,,0.00,meteohub,2013-03-09 14:52:00,
2013-03-09 15:57:00,62.1,41.5,29.57,South,189,12.0,17.0,47,0.00,,,0.00,meteohub,2013-03-09 14:57:00,
2013-03-09 16:02:00,62.1,42.1,29.57,South,180,8.0,17.0,48,0.00,,,0.00,meteohub,2013-03-09 15:02:00,
2013-03-09 16:07:00,62.2,42.3,29.57,SSE,160,5.0,18.0,48,0.00,,,0.00,meteohub,2013-03-09 15:07:00,
2013-03-09 16:12:00,62.6,42.6,29.57,South,182,9.0,18.0,48,0.00,,,0.00,meteohub,2013-03-09 15:12:00,
2013-03-09 16:18:00,62.8,43.3,29.57,South,180,2.0,16.0,49,0.00,,,0.00,meteohub,2013-03-09 15:18:00,
2013-03-09 16:24:00,63.3,43.9,29.58,SW,217,5.0,13.0,49,0.00,,,0.00,meteohub,2013-03-09 15:24:00,
2013-03-09 16:31:00,63.1,43.2,29.58,SSW,199,3.0,12.0,48,0.00,,,0.00,meteohub,2013-03-09 15:31:00,
2013-03-09 16:37:00,62.6,43.2,29.58,SSW,196,4.0,12.0,49,0.00,,,0.00,meteohub,2013-03-09 15:37:00,
2013-03-09 16:42:00,62.2,42.8,29.58,South,180,10.0,12.0,49,0.00,,,0.00,meteohub,2013-03-09 15:42:00,
2013-03-09 16:47:00,61.9,43.5,29.58,SW,215,13.0,17.0,51,0.00,,,0.00,meteohub,2013-03-09 15:47:00,
2013-03-09 16:52:00,61.3,43.0,29.58,SW,218,15.0,17.0,51,0.00,,,0.00,meteohub,2013-03-09 15:52:00,
2013-03-09 16:57:00,61.0,42.8,29.58,SSW,193,8.0,17.0,51,0.00,,,0.00,meteohub,2013-03-09 15:57:00,
2013-03-09 17:02:00,61.2,43.0,29.58,SSW,198,12.0,17.0,51,0.00,,,0.00,meteohub,2013-03-09 16:02:00,
2013-03-09 17:07:00,61.2,42.4,29.58,SSE,163,7.0,17.0,50,0.00,,,0.00,meteohub,2013-03-09 16:07:00,
2013-03-09 17:12:00,61.3,42.6,29.58,SSW,199,3.0,16.0,50,0.00,,,0.00,meteohub,2013-03-09 16:12:00,
2013-03-09 17:17:00,61.7,42.8,29.58,South,180,1.0,15.0,50,0.00,,,0.00,meteohub,2013-03-09 16:17:00,
2013-03-09 17:23:00,62.2,42.3,29.59,WSW,244,1.0,13.0,48,0.00,,,0.00,meteohub,2013-03-09 16:23:00,
2013-03-09 17:29:00,62.2,42.8,29.59,West,261,1.0,10.0,49,0.00,,,0.00,meteohub,2013-03-09 16:29:00,
2013-03-09 17:35:00,62.6,43.2,29.59,WSW,253,1.0,9.0,49,0.00,,,0.00,meteohub,2013-03-09 16:35:00,
2013-03-09 17:41:00,62.1,42.6,29.59,SSE,148,4.0,9.0,49,0.00,,,0.00,meteohub,2013-03-09 16:41:00,
2013-03-09 17:47:00,61.3,42.6,29.59,South,191,2.0,12.0,50,0.00,,,0.00,meteohub,2013-03-09 16:47:00,
2013-03-09 17:52:00,61.0,42.3,29.59,SSW,213,4.0,15.0,50,0.00,,,0.00,meteohub,2013-03-09 16:52:00,
2013-03-09 17:58:00,61.0,42.8,29.59,NW,317,1.0,15.0,51,0.00,,,0.00,meteohub,2013-03-09 16:58:00,
2013-03-09 18:04:00,61.2,43.0,29.59,East,96,3.0,9.0,51,0.00,,,0.00,meteohub,2013-03-09 17:04:00,
2013-03-09 18:10:00,60.4,42.8,29.59,ENE,74,2.0,7.0,52,0.00,,,0.00,meteohub,2013-03-09 17:10:00,
2013-03-09 18:16:00,60.1,44.8,29.59,East,79,0.0,6.0,57,0.00,,,0.00,meteohub,2013-03-09 17:16:00,
2013-03-09 18:22:00,59.4,45.9,29.59,SSE,153,3.0,6.0,61,0.00,,,0.00,meteohub,2013-03-09 17:22:00,
2013-03-09 18:27:00,58.6,45.7,29.59,ENE,73,1.0,6.0,62,0.00,,,0.00,meteohub,2013-03-09 17:27:00,
2013-03-09 18:32:00,58.3,43.5,29.59,SE,127,3.0,6.0,58,0.00,,,0.00,meteohub,2013-03-09 17:32:00,
2013-03-09 18:38:00,58.1,43.0,29.60,SSW,197,3.0,5.0,57,0.00,,,0.00,meteohub,2013-03-09 17:38:00,
2013-03-09 18:44:00,57.7,44.4,29.60,South,178,1.0,5.0,61,0.00,,,0.00,meteohub,2013-03-09 17:44:00,
2013-03-09 18:50:00,57.4,44.4,29.60,WSW,244,2.0,6.0,62,0.00,,,0.00,meteohub,2013-03-09 17:50:00,
2013-03-09 18:56:00,57.0,45.3,29.60,West,259,0.0,6.0,65,0.00,,,0.00,meteohub,2013-03-09 17:56:00,
2013-03-09 19:02:00,56.8,45.7,29.60,West,259,0.0,5.0,66,0.00,,,0.00,meteohub,2013-03-09 18:02:00,
2013-03-09 19:07:00,56.5,44.4,29.61,ENE,62,0.0,5.0,64,0.00,,,0.00,meteohub,2013-03-09 18:07:00,
2013-03-09 19:12:00,56.5,43.2,29.61,South,171,3.0,5.0,61,0.00,,,0.00,meteohub,2013-03-09 18:12:00,
2013-03-09 19:17:00,56.5,44.4,29.61,SSW,211,1.0,5.0,64,0.00,,,0.00,meteohub,2013-03-09 18:17:00,
2013-03-09 19:22:00,56.5,43.2,29.61,SE,129,2.0,7.0,61,0.00,,,0.00,meteohub,2013-03-09 18:22:00,
2013-03-09 19:27:00,56.7,43.3,29.61,SW,215,3.0,7.0,61,0.00,,,0.00,meteohub,2013-03-09 18:27:00,
2013-03-09 19:32:00,56.7,43.3,29.62,SSW,203,5.0,9.0,61,0.00,,,0.00,meteohub,2013-03-09 18:32:00,
2013-03-09 19:37:00,56.7,43.0,29.62,South,173,3.0,9.0,60,0.00,,,0.00,meteohub,2013-03-09 18:37:00,
2013-03-09 19:42:00,56.5,43.2,29.62,SSW,194,2.0,8.0,61,0.00,,,0.00,meteohub,2013-03-09 18:42:00,
2013-03-09 19:47:00,56.3,43.0,29.62,SSW,204,4.0,8.0,61,0.00,,,0.00,meteohub,2013-03-09 18:47:00,
2013-03-09 19:52:00,55.9,44.4,29.62,SSE,166,0.0,7.0,65,0.00,,,0.00,meteohub,2013-03-09 18:52:00,
2013-03-09 19:57:00,55.2,44.8,29.62,NW,323,2.0,7.0,68,0.00,,,0.00,meteohub,2013-03-09 18:57:00,
2013-03-09 20:02:00,54.7,44.8,29.63,NW,324,2.0,7.0,69,0.00,,,0.00,meteohub,2013-03-09 19:02:00,
2013-03-09 20:07:00,54.0,45.5,29.62,NW,309,2.0,6.0,73,0.00,,,0.00,meteohub,2013-03-09 19:07:00,
2013-03-09 20:12:00,53.8,45.0,29.62,SSW,212,0.0,6.0,72,0.00,,,0.00,meteohub,2013-03-09 19:12:00,
2013-03-09 20:17:00,53.8,45.0,29.63,WSW,240,2.0,6.0,72,0.00,,,0.00,meteohub,2013-03-09 19:17:00,
2013-03-09 20:22:00,53.4,45.0,29.63,NW,306,4.0,5.0,73,0.00,,,0.00,meteohub,2013-03-09 19:22:00,
2013-03-09 20:27:00,52.5,44.4,29.63,WNW,295,3.0,5.0,74,0.00,,,0.00,meteohub,2013-03-09 19:27:00,
2013-03-09 20:32:00,52.0,44.2,29.63,WNW,300,3.0,5.0,75,0.00,,,0.00,meteohub,2013-03-09 19:32:00,
2013-03-09 20:37:00,52.5,43.3,29.63,SSW,199,4.0,5.0,71,0.00,,,0.00,meteohub,2013-03-09 19:37:00,
2013-03-09 20:42:00,54.0,42.8,29.63,WSW,246,2.0,9.0,66,0.00,,,0.00,meteohub,2013-03-09 19:42:00,
2013-03-09 20:47:00,54.7,43.2,29.63,SW,216,2.0,10.0,65,0.00,,,0.00,meteohub,2013-03-09 19:47:00,
2013-03-09 20:52:00,54.1,44.2,29.63,WNW,294,1.0,10.0,69,0.00,,,0.00,meteohub,2013-03-09 19:52:00,
2013-03-09 20:57:00,53.1,43.9,29.63,West,277,5.0,10.0,71,0.00,,,0.00,meteohub,2013-03-09 19:57:00,
2013-03-09 21:02:00,52.2,43.3,29.63,WNW,300,0.0,5.0,72,0.00,,,0.00,meteohub,2013-03-09 20:02:00,
2013-03-09 21:08:00,53.2,43.0,29.63,South,186,3.0,6.0,68,0.00,,,0.00,meteohub,2013-03-09 20:08:00,
2013-03-09 21:14:00,54.3,43.2,29.63,South,188,4.0,9.0,66,0.00,,,0.00,meteohub,2013-03-09 20:14:00,
2013-03-09 21:20:00,54.7,43.2,29.63,SW,215,10.0,10.0,65,0.00,,,0.00,meteohub,2013-03-09 20:20:00,
2013-03-09 21:26:00,54.9,43.0,29.64,South,188,4.0,10.0,64,0.00,,,0.00,meteohub,2013-03-09 20:26:00,
2013-03-09 21:32:00,54.9,43.3,29.63,South,170,3.0,10.0,65,0.00,,,0.00,meteohub,2013-03-09 20:32:00,
2013-03-09 21:37:00,54.7,43.2,29.63,WSW,249,6.0,10.0,65,0.00,,,0.00,meteohub,2013-03-09 20:37:00,
2013-03-09 21:42:00,54.7,43.5,29.63,SSW,198,3.0,9.0,66,0.00,,,0.00,meteohub,2013-03-09 20:42:00,
2013-03-09 21:47:00,54.7,43.5,29.62,South,183,2.0,8.0,66,0.00,,,0.00,meteohub,2013-03-09 20:47:00,
2013-03-09 21:52:00,54.3,43.5,29.62,SSE,150,3.0,8.0,67,0.00,,,0.00,meteohub,2013-03-09 20:52:00,
2013-03-09 21:57:00,54.1,43.3,29.62,South,186,1.0,8.0,67,0.00,,,0.00,meteohub,2013-03-09 20:57:00,
2013-03-09 22:02:00,53.8,43.5,29.62,SSW,198,3.0,5.0,68,0.00,,,0.00,meteohub,2013-03-09 21:02:00,
2013-03-09 22:07:00,53.8,43.5,29.62,South,183,5.0,9.0,68,0.00,,,0.00,meteohub,2013-03-09 21:07:00,
2013-03-09 22:12:00,53.6,43.7,29.63,SW,219,0.0,9.0,69,0.00,,,0.00,meteohub,2013-03-09 21:12:00,
2013-03-09 22:17:00,53.6,43.7,29.63,South,177,2.0,9.0,69,0.00,,,0.00,meteohub,2013-03-09 21:17:00,
2013-03-09 22:23:00,53.4,43.5,29.62,South,176,1.0,7.0,69,0.00,,,0.00,meteohub,2013-03-09 21:23:00,
2013-03-09 22:29:00,53.4,43.9,29.62,South,177,0.0,5.0,70,0.00,,,0.00,meteohub,2013-03-09 21:29:00,
2013-03-09 22:35:00,53.2,43.7,29.62,SSE,150,2.0,5.0,70,0.00,,,0.00,meteohub,2013-03-09 21:35:00,
2013-03-09 22:41:00,53.2,43.7,29.62,SSE,148,1.0,5.0,70,0.00,,,0.00,meteohub,2013-03-09 21:41:00,
2013-03-09 22:47:00,53.2,43.7,29.62,SSE,159,0.0,5.0,70,0.00,,,0.00,meteohub,2013-03-09 21:47:00,
2013-03-09 22:52:00,53.1,43.5,29.63,South,179,2.0,4.0,70,0.00,,,0.00,meteohub,2013-03-09 21:52:00,
2013-03-09 22:57:00,53.1,43.5,29.63,ESE,112,2.0,4.0,70,0.00,,,0.00,meteohub,2013-03-09 21:57:00,
2013-03-09 23:02:00,53.1,43.5,29.62,SE,126,0.0,4.0,70,0.00,,,0.00,meteohub,2013-03-09 22:02:00,
2013-03-09 23:07:00,52.9,43.7,29.62,ESE,120,1.0,5.0,71,0.00,,,0.00,meteohub,2013-03-09 22:07:00,
2013-03-09 23:12:00,52.7,43.5,29.63,SSE,159,0.0,5.0,71,0.00,,,0.00,meteohub,2013-03-09 22:12:00,
2013-03-09 23:17:00,52.5,43.3,29.63,South,178,1.0,5.0,71,0.00,,,0.00,meteohub,2013-03-09 22:17:00,
2013-03-09 23:22:00,52.5,43.0,29.63,South,178,0.0,4.0,70,0.00,,,0.00,meteohub,2013-03-09 22:22:00,
2013-03-09 23:27:00,52.3,43.2,29.62,SW,219,1.0,4.0,71,0.00,,,0.00,meteohub,2013-03-09 22:27:00,
2013-03-09 23:32:00,51.8,43.0,29.62,SW,219,1.0,4.0,72,0.00,,,0.00,meteohub,2013-03-09 22:32:00,
2013-03-09 23:37:00,51.3,43.0,29.62,SW,219,0.0,3.0,73,0.00,,,0.00,meteohub,2013-03-09 22:37:00,
2013-03-09 23:42:00,51.1,43.2,29.62,SW,219,1.0,3.0,74,0.00,,,0.00,meteohub,2013-03-09 22:42:00,
2013-03-09 23:47:00,50.9,43.0,29.61,SW,223,0.0,2.0,74,0.00,,,0.00,meteohub,2013-03-09 22:47:00,
2013-03-09 23:52:00,50.7,43.2,29.62,SW,227,0.0,2.0,75,0.00,,,0.00,meteohub,2013-03-09 22:52:00,
2013-03-09 23:57:00,50.5,43.0,29.62,SW,227,0.0,2.0,75,0.00,,,0.00,meteohub,2013-03-09 22:57:00,